sensor_id;sensor_type;location;lat;lon;timestamp;P1;durP1;ratioP1;P2;durP2;ratioP2
70744;SDS011;59284;31.390;34.904;2022-07-22T00:09:25;36.40;;;17.20;;
70744;SDS011;59284;31.390;34.904;2022-07-22T00:58:46;47.38;;;19.65;;
70744;SDS011;59284;31.390;34.904;2022-07-22T01:05:22;49.42;;;19.63;;
70744;SDS011;59284;31.390;34.904;2022-07-22T01:08:08;47.08;;;18.48;;
70744;SDS011;59284;31.390;34.904;2022-07-22T01:10:38;48.90;;;19.33;;
70744;SDS011;59284;31.390;34.904;2022-07-22T01:16:01;43.20;;;21.17;;
70744;SDS011;59284;31.390;34.904;2022-07-22T01:18:33;54.10;;;24.10;;
70744;SDS011;59284;31.390;34.904;2022-07-22T01:21:08;49.85;;;22.02;;
70744;SDS011;59284;31.390;34.904;2022-07-22T01:23:44;67.07;;;23.58;;
70744;SDS011;59284;31.390;34.904;2022-07-22T01:26:15;53.90;;;21.95;;
70744;SDS011;59284;31.390;34.904;2022-07-22T01:31:46;48.53;;;20.52;;
70744;SDS011;59284;31.390;34.904;2022-07-22T01:37:42;36.97;;;17.02;;
70744;SDS011;59284;31.390;34.904;2022-07-22T01:47:16;45.42;;;17.75;;
70744;SDS011;59284;31.390;34.904;2022-07-22T01:49:44;33.67;;;17.00;;
70744;SDS011;59284;31.390;34.904;2022-07-22T01:52:24;43.33;;;19.15;;
70744;SDS011;59284;31.390;34.904;2022-07-22T01:54:50;43.85;;;18.90;;
70744;SDS011;59284;31.390;34.904;2022-07-22T01:57:16;40.03;;;18.23;;
70744;SDS011;59284;31.390;34.904;2022-07-22T01:59:41;36.90;;;17.13;;
70744;SDS011;59284;31.390;34.904;2022-07-22T02:02:07;43.67;;;18.83;;
70744;SDS011;59284;31.390;34.904;2022-07-22T02:07:40;36.42;;;17.38;;
70744;SDS011;59284;31.390;34.904;2022-07-22T02:33:34;45.00;;;20.08;;
70744;SDS011;59284;31.390;34.904;2022-07-22T02:36:03;49.50;;;18.83;;
70744;SDS011;59284;31.390;34.904;2022-07-22T02:38:35;38.53;;;19.30;;
70744;SDS011;59284;31.390;34.904;2022-07-22T02:41:12;41.05;;;19.77;;
70744;SDS011;59284;31.390;34.904;2022-07-22T02:43:42;46.15;;;19.80;;
70744;SDS011;59284;31.390;34.904;2022-07-22T02:46:13;39.45;;;18.75;;
70744;SDS011;59284;31.390;34.904;2022-07-22T02:48:54;35.53;;;18.10;;
70744;SDS011;59284;31.390;34.904;2022-07-22T02:51:44;37.53;;;17.42;;
70744;SDS011;59284;31.390;34.904;2022-07-22T02:54:14;37.97;;;16.83;;
70744;SDS011;59284;31.390;34.904;2022-07-22T02:56:43;37.30;;;18.65;;
70744;SDS011;59284;31.390;34.904;2022-07-22T02:59:23;32.90;;;16.73;;
70744;SDS011;59284;31.390;34.904;2022-07-22T03:01:50;34.33;;;16.67;;
70744;SDS011;59284;31.390;34.904;2022-07-22T03:04:16;38.65;;;18.48;;
70744;SDS011;59284;31.390;34.904;2022-07-22T03:06:41;38.72;;;17.50;;
70744;SDS011;59284;31.390;34.904;2022-07-22T03:09:07;39.97;;;18.15;;
70744;SDS011;59284;31.390;34.904;2022-07-22T03:11:33;31.97;;;16.13;;
70744;SDS011;59284;31.390;34.904;2022-07-22T03:14:01;46.03;;;18.05;;
70744;SDS011;59284;31.390;34.904;2022-07-22T03:16:30;37.38;;;17.67;;
70744;SDS011;59284;31.390;34.904;2022-07-22T03:18:55;40.17;;;18.57;;
70744;SDS011;59284;31.390;34.904;2022-07-22T03:21:26;40.45;;;17.70;;
70744;SDS011;59284;31.390;34.904;2022-07-22T03:24:16;33.83;;;18.15;;
70744;SDS011;59284;31.390;34.904;2022-07-22T03:27:06;36.60;;;18.42;;
70744;SDS011;59284;31.390;34.904;2022-07-22T03:29:52;38.63;;;17.42;;
70744;SDS011;59284;31.390;34.904;2022-07-22T03:32:23;32.47;;;16.87;;
70744;SDS011;59284;31.390;34.904;2022-07-22T03:35:10;34.42;;;17.80;;
70744;SDS011;59284;31.390;34.904;2022-07-22T03:40:46;35.22;;;16.70;;
70744;SDS011;59284;31.390;34.904;2022-07-22T03:43:12;27.47;;;15.87;;
70744;SDS011;59284;31.390;34.904;2022-07-22T03:45:38;30.30;;;15.60;;
70744;SDS011;59284;31.390;34.904;2022-07-22T03:48:04;36.42;;;16.38;;
70744;SDS011;59284;31.390;34.904;2022-07-22T03:50:33;31.75;;;15.55;;
70744;SDS011;59284;31.390;34.904;2022-07-22T03:53:01;29.80;;;16.23;;
70744;SDS011;59284;31.390;34.904;2022-07-22T03:55:26;31.23;;;15.43;;
70744;SDS011;59284;31.390;34.904;2022-07-22T03:57:58;32.83;;;16.15;;
70744;SDS011;59284;31.390;34.904;2022-07-22T04:00:26;28.13;;;16.13;;
70744;SDS011;59284;31.390;34.904;2022-07-22T04:03:06;41.73;;;15.90;;
70744;SDS011;59284;31.390;34.904;2022-07-22T04:05:32;29.77;;;15.18;;
70744;SDS011;59284;31.390;34.904;2022-07-22T04:07:58;31.48;;;15.25;;
70744;SDS011;59284;31.390;34.904;2022-07-22T04:10:25;31.77;;;14.60;;
70744;SDS011;59284;31.390;34.904;2022-07-22T04:12:54;23.98;;;14.05;;
70744;SDS011;59284;31.390;34.904;2022-07-22T04:15:20;27.40;;;14.60;;
70744;SDS011;59284;31.390;34.904;2022-07-22T04:17:45;25.33;;;12.23;;
70744;SDS011;59284;31.390;34.904;2022-07-22T04:20:11;22.33;;;11.40;;
70744;SDS011;59284;31.390;34.904;2022-07-22T04:22:37;20.40;;;12.30;;
70744;SDS011;59284;31.390;34.904;2022-07-22T04:25:09;26.90;;;12.87;;
70744;SDS011;59284;31.390;34.904;2022-07-22T04:27:41;20.85;;;11.65;;
70744;SDS011;59284;31.390;34.904;2022-07-22T04:30:10;20.58;;;11.90;;
70744;SDS011;59284;31.390;34.904;2022-07-22T04:32:39;19.20;;;12.45;;
70744;SDS011;59284;31.390;34.904;2022-07-22T04:35:08;24.90;;;12.47;;
70744;SDS011;59284;31.390;34.904;2022-07-22T04:37:46;26.48;;;13.00;;
70744;SDS011;59284;31.390;34.904;2022-07-22T04:40:14;25.02;;;11.40;;
70744;SDS011;59284;31.390;34.904;2022-07-22T04:42:40;20.00;;;11.87;;
70744;SDS011;59284;31.390;34.904;2022-07-22T04:45:06;20.85;;;10.73;;
70744;SDS011;59284;31.390;34.904;2022-07-22T04:47:32;25.90;;;11.70;;
70744;SDS011;59284;31.390;34.904;2022-07-22T04:50:00;30.40;;;11.77;;
70744;SDS011;59284;31.390;34.904;2022-07-22T04:55:45;22.67;;;10.70;;
70744;SDS011;59284;31.390;34.904;2022-07-22T04:58:28;24.10;;;10.60;;
70744;SDS011;59284;31.390;34.904;2022-07-22T05:00:54;19.80;;;11.40;;
70744;SDS011;59284;31.390;34.904;2022-07-22T05:03:20;21.80;;;10.77;;
70744;SDS011;59284;31.390;34.904;2022-07-22T05:05:49;19.37;;;10.97;;
70744;SDS011;59284;31.390;34.904;2022-07-22T05:08:40;19.65;;;11.07;;
70744;SDS011;59284;31.390;34.904;2022-07-22T05:11:08;19.48;;;10.43;;
70744;SDS011;59284;31.390;34.904;2022-07-22T05:13:39;21.07;;;9.90;;
70744;SDS011;59284;31.390;34.904;2022-07-22T05:16:05;19.70;;;9.90;;
70744;SDS011;59284;31.390;34.904;2022-07-22T05:18:35;22.58;;;9.60;;
70744;SDS011;59284;31.390;34.904;2022-07-22T05:21:14;19.38;;;9.57;;
70744;SDS011;59284;31.390;34.904;2022-07-22T05:37:26;19.88;;;8.70;;
70744;SDS011;59284;31.390;34.904;2022-07-22T05:39:52;16.10;;;8.50;;
70744;SDS011;59284;31.390;34.904;2022-07-22T05:42:17;13.80;;;7.67;;
70744;SDS011;59284;31.390;34.904;2022-07-22T05:44:44;22.05;;;8.05;;
70744;SDS011;59284;31.390;34.904;2022-07-22T05:47:10;14.65;;;8.23;;
70744;SDS011;59284;31.390;34.904;2022-07-22T05:49:41;17.80;;;8.13;;
70744;SDS011;59284;31.390;34.904;2022-07-22T05:52:07;13.70;;;7.68;;
70744;SDS011;59284;31.390;34.904;2022-07-22T05:54:35;18.80;;;8.25;;
70744;SDS011;59284;31.390;34.904;2022-07-22T05:57:01;16.47;;;8.17;;
70744;SDS011;59284;31.390;34.904;2022-07-22T05:59:26;14.32;;;7.95;;
70744;SDS011;59284;31.390;34.904;2022-07-22T06:01:52;17.13;;;7.10;;
70744;SDS011;59284;31.390;34.904;2022-07-22T06:04:18;15.17;;;7.80;;
70744;SDS011;59284;31.390;34.904;2022-07-22T06:06:44;17.95;;;7.65;;
70744;SDS011;59284;31.390;34.904;2022-07-22T06:09:09;15.90;;;6.70;;
70744;SDS011;59284;31.390;34.904;2022-07-22T06:11:35;15.98;;;6.78;;
70744;SDS011;59284;31.390;34.904;2022-07-22T06:14:01;21.17;;;6.67;;
70744;SDS011;59284;31.390;34.904;2022-07-22T06:16:27;12.93;;;6.07;;
70744;SDS011;59284;31.390;34.904;2022-07-22T06:18:52;14.77;;;5.80;;
70744;SDS011;59284;31.390;34.904;2022-07-22T06:21:18;9.90;;;5.32;;
70744;SDS011;59284;31.390;34.904;2022-07-22T06:23:44;11.37;;;5.90;;
70744;SDS011;59284;31.390;34.904;2022-07-22T06:26:11;12.27;;;5.63;;
70744;SDS011;59284;31.390;34.904;2022-07-22T06:28:37;19.30;;;6.43;;
70744;SDS011;59284;31.390;34.904;2022-07-22T06:31:08;15.70;;;5.82;;
70744;SDS011;59284;31.390;34.904;2022-07-22T06:33:33;17.13;;;6.63;;
70744;SDS011;59284;31.390;34.904;2022-07-22T06:35:59;13.95;;;6.30;;
70744;SDS011;59284;31.390;34.904;2022-07-22T06:38:25;14.65;;;5.93;;
70744;SDS011;59284;31.390;34.904;2022-07-22T06:40:51;15.83;;;7.47;;
70744;SDS011;59284;31.390;34.904;2022-07-22T06:43:17;11.13;;;6.18;;
70744;SDS011;59284;31.390;34.904;2022-07-22T06:45:45;22.27;;;5.30;;
70744;SDS011;59284;31.390;34.904;2022-07-22T06:48:11;11.32;;;5.30;;
70744;SDS011;59284;31.390;34.904;2022-07-22T06:50:37;14.68;;;4.55;;
70744;SDS011;59284;31.390;34.904;2022-07-22T06:53:03;10.23;;;4.40;;
70744;SDS011;59284;31.390;34.904;2022-07-22T06:55:28;12.60;;;4.97;;
70744;SDS011;59284;31.390;34.904;2022-07-22T06:57:54;11.77;;;4.23;;
70744;SDS011;59284;31.390;34.904;2022-07-22T07:00:20;11.32;;;4.78;;
70744;SDS011;59284;31.390;34.904;2022-07-22T07:02:45;14.57;;;4.70;;
70744;SDS011;59284;31.390;34.904;2022-07-22T07:05:12;13.60;;;5.05;;
70744;SDS011;59284;31.390;34.904;2022-07-22T07:07:38;11.13;;;5.00;;
70744;SDS011;59284;31.390;34.904;2022-07-22T07:10:04;11.33;;;4.23;;
70744;SDS011;59284;31.390;34.904;2022-07-22T07:12:30;12.25;;;4.35;;
70744;SDS011;59284;31.390;34.904;2022-07-22T07:14:55;7.87;;;3.77;;
70744;SDS011;59284;31.390;34.904;2022-07-22T07:17:21;11.32;;;3.50;;
70744;SDS011;59284;31.390;34.904;2022-07-22T07:19:47;20.37;;;3.80;;
70744;SDS011;59284;31.390;34.904;2022-07-22T07:22:12;12.63;;;4.65;;
70744;SDS011;59284;31.390;34.904;2022-07-22T07:24:38;9.15;;;4.03;;
70744;SDS011;59284;31.390;34.904;2022-07-22T07:27:04;12.50;;;4.03;;
70744;SDS011;59284;31.390;34.904;2022-07-22T07:29:30;9.25;;;3.88;;
70744;SDS011;59284;31.390;34.904;2022-07-22T07:31:56;6.13;;;2.97;;
70744;SDS011;59284;31.390;34.904;2022-07-22T07:34:22;11.13;;;3.17;;
70744;SDS011;59284;31.390;34.904;2022-07-22T07:36:47;12.95;;;3.72;;
70744;SDS011;59284;31.390;34.904;2022-07-22T07:39:13;11.53;;;3.50;;
70744;SDS011;59284;31.390;34.904;2022-07-22T07:41:39;12.90;;;3.83;;
70744;SDS011;59284;31.390;34.904;2022-07-22T07:44:05;10.53;;;3.73;;
70744;SDS011;59284;31.390;34.904;2022-07-22T07:46:31;10.25;;;3.28;;
70744;SDS011;59284;31.390;34.904;2022-07-22T07:48:57;8.27;;;3.10;;
70744;SDS011;59284;31.390;34.904;2022-07-22T07:51:22;11.63;;;3.40;;
70744;SDS011;59284;31.390;34.904;2022-07-22T07:53:49;9.02;;;3.30;;
70744;SDS011;59284;31.390;34.904;2022-07-22T07:56:15;11.40;;;3.97;;
70744;SDS011;59284;31.390;34.904;2022-07-22T07:58:41;11.33;;;3.50;;
70744;SDS011;59284;31.390;34.904;2022-07-22T08:01:07;10.23;;;3.88;;
70744;SDS011;59284;31.390;34.904;2022-07-22T08:03:34;13.43;;;3.78;;
70744;SDS011;59284;31.390;34.904;2022-07-22T08:06:00;8.65;;;3.20;;
70744;SDS011;59284;31.390;34.904;2022-07-22T08:08:29;9.97;;;3.13;;
70744;SDS011;59284;31.390;34.904;2022-07-22T08:10:57;9.50;;;3.45;;
70744;SDS011;59284;31.390;34.904;2022-07-22T08:13:23;9.75;;;2.95;;
70744;SDS011;59284;31.390;34.904;2022-07-22T08:15:53;17.77;;;3.70;;
70744;SDS011;59284;31.390;34.904;2022-07-22T08:18:19;9.65;;;3.33;;
70744;SDS011;59284;31.390;34.904;2022-07-22T08:20:47;11.15;;;3.15;;
70744;SDS011;59284;31.390;34.904;2022-07-22T08:23:13;9.95;;;3.05;;
70744;SDS011;59284;31.390;34.904;2022-07-22T08:25:39;8.63;;;3.73;;
70744;SDS011;59284;31.390;34.904;2022-07-22T08:28:04;7.83;;;3.20;;
70744;SDS011;59284;31.390;34.904;2022-07-22T08:30:31;7.68;;;3.38;;
70744;SDS011;59284;31.390;34.904;2022-07-22T08:32:56;11.17;;;3.40;;
70744;SDS011;59284;31.390;34.904;2022-07-22T08:35:22;9.83;;;3.10;;
70744;SDS011;59284;31.390;34.904;2022-07-22T08:37:48;6.97;;;2.70;;
70744;SDS011;59284;31.390;34.904;2022-07-22T08:40:14;11.37;;;3.40;;
70744;SDS011;59284;31.390;34.904;2022-07-22T08:42:42;7.97;;;3.38;;
70744;SDS011;59284;31.390;34.904;2022-07-22T08:45:19;9.93;;;3.30;;
70744;SDS011;59284;31.390;34.904;2022-07-22T08:47:50;13.23;;;3.40;;
70744;SDS011;59284;31.390;34.904;2022-07-22T08:50:18;8.18;;;3.13;;
70744;SDS011;59284;31.390;34.904;2022-07-22T08:52:44;7.60;;;3.07;;
70744;SDS011;59284;31.390;34.904;2022-07-22T08:55:10;9.10;;;3.10;;
70744;SDS011;59284;31.390;34.904;2022-07-22T08:57:43;8.40;;;2.88;;
70744;SDS011;59284;31.390;34.904;2022-07-22T09:00:10;9.80;;;3.33;;
70744;SDS011;59284;31.390;34.904;2022-07-22T09:02:50;7.33;;;2.93;;
70744;SDS011;59284;31.390;34.904;2022-07-22T09:05:21;6.50;;;3.30;;
70744;SDS011;59284;31.390;34.904;2022-07-22T09:08:49;10.48;;;3.08;;
70744;SDS011;59284;31.390;34.904;2022-07-22T09:11:43;7.95;;;3.20;;
70744;SDS011;59284;31.390;34.904;2022-07-22T09:14:27;5.63;;;2.80;;
70744;SDS011;59284;31.390;34.904;2022-07-22T09:17:07;11.23;;;3.10;;
70744;SDS011;59284;31.390;34.904;2022-07-22T09:20:16;5.85;;;3.15;;
70744;SDS011;59284;31.390;34.904;2022-07-22T09:22:51;7.55;;;3.17;;
70744;SDS011;59284;31.390;34.904;2022-07-22T09:28:29;7.28;;;3.35;;
70744;SDS011;59284;31.390;34.904;2022-07-22T09:35:03;10.80;;;3.45;;
70744;SDS011;59284;31.390;34.904;2022-07-22T09:40:58;11.80;;;3.95;;
70744;SDS011;59284;31.390;34.904;2022-07-22T09:46:05;13.10;;;3.90;;
70744;SDS011;59284;31.390;34.904;2022-07-22T09:48:34;11.82;;;4.63;;
70744;SDS011;59284;31.390;34.904;2022-07-22T09:51:04;7.75;;;4.55;;
70744;SDS011;59284;31.390;34.904;2022-07-22T09:53:33;12.00;;;4.20;;
70744;SDS011;59284;31.390;34.904;2022-07-22T09:56:06;15.27;;;4.57;;
70744;SDS011;59284;31.390;34.904;2022-07-22T09:58:33;8.73;;;4.00;;
70744;SDS011;59284;31.390;34.904;2022-07-22T10:01:18;12.57;;;4.63;;
70744;SDS011;59284;31.390;34.904;2022-07-22T10:03:50;8.70;;;3.83;;
70744;SDS011;59284;31.390;34.904;2022-07-22T10:06:21;8.70;;;3.30;;
70744;SDS011;59284;31.390;34.904;2022-07-22T10:08:54;6.27;;;3.40;;
70744;SDS011;59284;31.390;34.904;2022-07-22T10:11:32;9.50;;;3.47;;
70744;SDS011;59284;31.390;34.904;2022-07-22T10:14:12;7.30;;;2.90;;
70744;SDS011;59284;31.390;34.904;2022-07-22T10:16:54;9.18;;;3.40;;
70744;SDS011;59284;31.390;34.904;2022-07-22T10:19:26;8.05;;;3.45;;
70744;SDS011;59284;31.390;34.904;2022-07-22T10:28:37;9.32;;;2.90;;
70744;SDS011;59284;31.390;34.904;2022-07-22T10:34:06;8.30;;;3.47;;
70744;SDS011;59284;31.390;34.904;2022-07-22T10:45:32;10.15;;;3.20;;
70744;SDS011;59284;31.390;34.904;2022-07-22T10:51:20;5.28;;;2.50;;
70744;SDS011;59284;31.390;34.904;2022-07-22T10:54:02;10.18;;;3.03;;
70744;SDS011;59284;31.390;34.904;2022-07-22T10:56:48;9.35;;;3.25;;
70744;SDS011;59284;31.390;34.904;2022-07-22T10:59:14;7.55;;;2.80;;
70744;SDS011;59284;31.390;34.904;2022-07-22T11:01:44;7.93;;;3.00;;
70744;SDS011;59284;31.390;34.904;2022-07-22T11:04:21;8.60;;;3.10;;
70744;SDS011;59284;31.390;34.904;2022-07-22T11:06:48;7.75;;;3.25;;
70744;SDS011;59284;31.390;34.904;2022-07-22T11:09:32;8.68;;;2.90;;
70744;SDS011;59284;31.390;34.904;2022-07-22T11:12:00;6.78;;;3.10;;
70744;SDS011;59284;31.390;34.904;2022-07-22T11:14:36;7.50;;;2.90;;
70744;SDS011;59284;31.390;34.904;2022-07-22T11:19:51;7.97;;;3.63;;
70744;SDS011;59284;31.390;34.904;2022-07-22T11:22:20;5.70;;;2.90;;
70744;SDS011;59284;31.390;34.904;2022-07-22T11:24:53;9.48;;;3.40;;
70744;SDS011;59284;31.390;34.904;2022-07-22T11:27:30;8.03;;;2.83;;
70744;SDS011;59284;31.390;34.904;2022-07-22T11:29:57;8.02;;;3.00;;
70744;SDS011;59284;31.390;34.904;2022-07-22T11:32:25;8.20;;;3.20;;
70744;SDS011;59284;31.390;34.904;2022-07-22T11:35:12;6.53;;;2.65;;
70744;SDS011;59284;31.390;34.904;2022-07-22T11:41:03;5.83;;;2.90;;
70744;SDS011;59284;31.390;34.904;2022-07-22T11:43:37;7.53;;;3.20;;
70744;SDS011;59284;31.390;34.904;2022-07-22T11:46:25;8.00;;;3.05;;
70744;SDS011;59284;31.390;34.904;2022-07-22T11:49:03;8.48;;;3.47;;
70744;SDS011;59284;31.390;34.904;2022-07-22T11:51:36;4.75;;;2.70;;
70744;SDS011;59284;31.390;34.904;2022-07-22T11:54:23;6.70;;;2.90;;
70744;SDS011;59284;31.390;34.904;2022-07-22T11:57:07;7.90;;;3.15;;
70744;SDS011;59284;31.390;34.904;2022-07-22T12:02:37;7.75;;;3.03;;
70744;SDS011;59284;31.390;34.904;2022-07-22T12:05:02;8.27;;;3.00;;
70744;SDS011;59284;31.390;34.904;2022-07-22T12:07:40;5.23;;;2.87;;
70744;SDS011;59284;31.390;34.904;2022-07-22T12:10:06;5.40;;;2.67;;
70744;SDS011;59284;31.390;34.904;2022-07-22T12:15:23;6.95;;;2.92;;
70744;SDS011;59284;31.390;34.904;2022-07-22T12:17:56;10.32;;;2.95;;
70744;SDS011;59284;31.390;34.904;2022-07-22T12:20:45;16.80;;;4.37;;
70744;SDS011;59284;31.390;34.904;2022-07-22T12:23:17;18.63;;;4.47;;
70744;SDS011;59284;31.390;34.904;2022-07-22T12:25:54;9.65;;;3.30;;
70744;SDS011;59284;31.390;34.904;2022-07-22T12:28:24;8.00;;;3.17;;
70744;SDS011;59284;31.390;34.904;2022-07-22T12:33:47;8.03;;;3.23;;
70744;SDS011;59284;31.390;34.904;2022-07-22T12:36:13;8.00;;;3.13;;
70744;SDS011;59284;31.390;34.904;2022-07-22T12:38:42;5.53;;;2.50;;
70744;SDS011;59284;31.390;34.904;2022-07-22T12:44:22;6.43;;;2.90;;
70744;SDS011;59284;31.390;34.904;2022-07-22T12:47:03;9.67;;;2.70;;
70744;SDS011;59284;31.390;34.904;2022-07-22T12:49:52;8.75;;;2.83;;
70744;SDS011;59284;31.390;34.904;2022-07-22T12:52:43;6.65;;;3.03;;
70744;SDS011;59284;31.390;34.904;2022-07-22T12:55:12;9.63;;;2.90;;
70744;SDS011;59284;31.390;34.904;2022-07-22T12:57:58;6.13;;;3.58;;
70744;SDS011;59284;31.390;34.904;2022-07-22T13:00:28;7.13;;;3.10;;
70744;SDS011;59284;31.390;34.904;2022-07-22T13:02:58;8.20;;;2.70;;
70744;SDS011;59284;31.390;34.904;2022-07-22T13:05:28;7.40;;;2.67;;
70744;SDS011;59284;31.390;34.904;2022-07-22T13:07:54;9.63;;;2.97;;
70744;SDS011;59284;31.390;34.904;2022-07-22T13:10:29;7.80;;;3.10;;
70744;SDS011;59284;31.390;34.904;2022-07-22T13:12:55;4.22;;;2.70;;
70744;SDS011;59284;31.390;34.904;2022-07-22T13:15:22;5.80;;;2.80;;
70744;SDS011;59284;31.390;34.904;2022-07-22T13:17:48;7.95;;;2.97;;
70744;SDS011;59284;31.390;34.904;2022-07-22T13:20:18;6.37;;;2.70;;
70744;SDS011;59284;31.390;34.904;2022-07-22T13:22:47;6.38;;;2.50;;
70744;SDS011;59284;31.390;34.904;2022-07-22T13:25:14;9.18;;;3.10;;
70744;SDS011;59284;31.390;34.904;2022-07-22T13:27:40;8.00;;;3.83;;
70744;SDS011;59284;31.390;34.904;2022-07-22T13:30:06;8.53;;;2.63;;
70744;SDS011;59284;31.390;34.904;2022-07-22T13:32:32;6.10;;;2.65;;
70744;SDS011;59284;31.390;34.904;2022-07-22T13:34:58;6.57;;;3.22;;
70744;SDS011;59284;31.390;34.904;2022-07-22T13:37:24;8.00;;;3.13;;
70744;SDS011;59284;31.390;34.904;2022-07-22T13:39:51;4.20;;;3.10;;
70744;SDS011;59284;31.390;34.904;2022-07-22T13:42:18;6.20;;;3.00;;
70744;SDS011;59284;31.390;34.904;2022-07-22T13:44:45;4.53;;;2.40;;
70744;SDS011;59284;31.390;34.904;2022-07-22T13:47:13;7.55;;;2.92;;
70744;SDS011;59284;31.390;34.904;2022-07-22T13:49:44;6.20;;;2.88;;
70744;SDS011;59284;31.390;34.904;2022-07-22T13:52:14;8.07;;;3.22;;
70744;SDS011;59284;31.390;34.904;2022-07-22T13:54:40;4.03;;;2.55;;
70744;SDS011;59284;31.390;34.904;2022-07-22T13:57:19;10.10;;;3.30;;
70744;SDS011;59284;31.390;34.904;2022-07-22T13:59:46;7.47;;;3.00;;
70744;SDS011;59284;31.390;34.904;2022-07-22T14:02:12;8.13;;;2.97;;
70744;SDS011;59284;31.390;34.904;2022-07-22T14:04:39;9.80;;;2.45;;
70744;SDS011;59284;31.390;34.904;2022-07-22T14:07:05;6.80;;;2.80;;
70744;SDS011;59284;31.390;34.904;2022-07-22T14:09:31;5.70;;;2.90;;
70744;SDS011;59284;31.390;34.904;2022-07-22T14:11:56;9.10;;;2.70;;
70744;SDS011;59284;31.390;34.904;2022-07-22T14:14:24;5.10;;;2.80;;
70744;SDS011;59284;31.390;34.904;2022-07-22T14:16:49;4.75;;;2.85;;
70744;SDS011;59284;31.390;34.904;2022-07-22T14:19:16;6.88;;;2.47;;
70744;SDS011;59284;31.390;34.904;2022-07-22T14:21:42;6.63;;;2.80;;
70744;SDS011;59284;31.390;34.904;2022-07-22T14:24:12;5.85;;;2.70;;
70744;SDS011;59284;31.390;34.904;2022-07-22T14:26:38;8.27;;;2.83;;
70744;SDS011;59284;31.390;34.904;2022-07-22T14:29:08;7.15;;;2.97;;
70744;SDS011;59284;31.390;34.904;2022-07-22T14:31:38;9.50;;;2.75;;
70744;SDS011;59284;31.390;34.904;2022-07-22T14:34:07;13.43;;;3.60;;
70744;SDS011;59284;31.390;34.904;2022-07-22T14:36:32;9.48;;;3.30;;
70744;SDS011;59284;31.390;34.904;2022-07-22T14:39:02;4.70;;;2.60;;
70744;SDS011;59284;31.390;34.904;2022-07-22T14:41:29;4.85;;;2.83;;
70744;SDS011;59284;31.390;34.904;2022-07-22T14:43:58;6.83;;;3.57;;
70744;SDS011;59284;31.390;34.904;2022-07-22T14:46:30;8.23;;;3.08;;
70744;SDS011;59284;31.390;34.904;2022-07-22T14:49:03;8.93;;;2.80;;
70744;SDS011;59284;31.390;34.904;2022-07-22T14:51:30;6.13;;;2.63;;
70744;SDS011;59284;31.390;34.904;2022-07-22T14:54:08;7.53;;;3.33;;
70744;SDS011;59284;31.390;34.904;2022-07-22T14:57:13;7.60;;;3.00;;
70744;SDS011;59284;31.390;34.904;2022-07-22T14:59:39;11.30;;;2.70;;
70744;SDS011;59284;31.390;34.904;2022-07-22T15:02:05;6.90;;;2.92;;
70744;SDS011;59284;31.390;34.904;2022-07-22T15:04:42;9.05;;;3.17;;
70744;SDS011;59284;31.390;34.904;2022-07-22T15:07:21;7.22;;;2.70;;
70744;SDS011;59284;31.390;34.904;2022-07-22T15:09:46;9.30;;;3.00;;
70744;SDS011;59284;31.390;34.904;2022-07-22T15:12:19;8.70;;;3.70;;
70744;SDS011;59284;31.390;34.904;2022-07-22T15:15:02;7.53;;;2.95;;
70744;SDS011;59284;31.390;34.904;2022-07-22T15:17:28;6.22;;;2.88;;
70744;SDS011;59284;31.390;34.904;2022-07-22T15:20:25;5.28;;;2.47;;
70744;SDS011;59284;31.390;34.904;2022-07-22T15:23:02;9.17;;;2.73;;
70744;SDS011;59284;31.390;34.904;2022-07-22T15:25:29;5.32;;;2.97;;
70744;SDS011;59284;31.390;34.904;2022-07-22T15:28:03;7.75;;;3.08;;
70744;SDS011;59284;31.390;34.904;2022-07-22T15:30:32;6.30;;;2.78;;
70744;SDS011;59284;31.390;34.904;2022-07-22T15:33:01;7.35;;;2.78;;
70744;SDS011;59284;31.390;34.904;2022-07-22T15:35:28;6.00;;;2.73;;
70744;SDS011;59284;31.390;34.904;2022-07-22T15:37:54;10.77;;;3.55;;
70744;SDS011;59284;31.390;34.904;2022-07-22T15:40:20;11.50;;;4.45;;
70744;SDS011;59284;31.390;34.904;2022-07-22T15:42:46;5.60;;;3.10;;
70744;SDS011;59284;31.390;34.904;2022-07-22T15:45:12;10.50;;;3.85;;
70744;SDS011;59284;31.390;34.904;2022-07-22T15:47:40;8.98;;;5.85;;
70744;SDS011;59284;31.390;34.904;2022-07-22T15:50:06;14.37;;;6.23;;
70744;SDS011;59284;31.390;34.904;2022-07-22T15:52:32;8.52;;;4.38;;
70744;SDS011;59284;31.390;34.904;2022-07-22T15:54:58;8.38;;;3.90;;
70744;SDS011;59284;31.390;34.904;2022-07-22T15:57:23;15.60;;;4.00;;
70744;SDS011;59284;31.390;34.904;2022-07-22T16:00:07;10.75;;;5.68;;
70744;SDS011;59284;31.390;34.904;2022-07-22T16:02:33;5.82;;;3.15;;
70744;SDS011;59284;31.390;34.904;2022-07-22T16:05:01;16.73;;;3.70;;
70744;SDS011;59284;31.390;34.904;2022-07-22T16:07:30;9.20;;;2.93;;
70744;SDS011;59284;31.390;34.904;2022-07-22T16:09:56;6.47;;;3.50;;
70744;SDS011;59284;31.390;34.904;2022-07-22T16:12:23;9.10;;;3.10;;
70744;SDS011;59284;31.390;34.904;2022-07-22T16:14:49;10.40;;;3.80;;
70744;SDS011;59284;31.390;34.904;2022-07-22T16:17:14;8.57;;;4.30;;
70744;SDS011;59284;31.390;34.904;2022-07-22T16:19:42;8.60;;;3.80;;
70744;SDS011;59284;31.390;34.904;2022-07-22T16:22:10;21.42;;;11.65;;
70744;SDS011;59284;31.390;34.904;2022-07-22T16:24:36;10.17;;;3.57;;
70744;SDS011;59284;31.390;34.904;2022-07-22T16:27:02;7.55;;;3.35;;
70744;SDS011;59284;31.390;34.904;2022-07-22T16:29:28;7.20;;;3.40;;
70744;SDS011;59284;31.390;34.904;2022-07-22T16:31:53;9.23;;;3.27;;
70744;SDS011;59284;31.390;34.904;2022-07-22T16:34:19;8.80;;;3.92;;
70744;SDS011;59284;31.390;34.904;2022-07-22T16:36:46;10.37;;;4.17;;
70744;SDS011;59284;31.390;34.904;2022-07-22T16:39:12;9.52;;;3.65;;
70744;SDS011;59284;31.390;34.904;2022-07-22T16:41:38;9.68;;;4.28;;
70744;SDS011;59284;31.390;34.904;2022-07-22T16:44:04;7.05;;;4.03;;
70744;SDS011;59284;31.390;34.904;2022-07-22T16:46:35;8.63;;;4.22;;
70744;SDS011;59284;31.390;34.904;2022-07-22T16:49:09;15.27;;;4.73;;
70744;SDS011;59284;31.390;34.904;2022-07-22T16:51:56;12.30;;;5.32;;
70744;SDS011;59284;31.390;34.904;2022-07-22T16:54:27;10.35;;;4.82;;
70744;SDS011;59284;31.390;34.904;2022-07-22T16:57:04;12.15;;;5.03;;
70744;SDS011;59284;31.390;34.904;2022-07-22T17:12:10;11.80;;;4.90;;
70744;SDS011;59284;31.390;34.904;2022-07-22T17:14:39;12.95;;;5.30;;
70744;SDS011;59284;31.390;34.904;2022-07-22T17:17:14;12.85;;;5.15;;
70744;SDS011;59284;31.390;34.904;2022-07-22T17:19:59;7.87;;;4.37;;
70744;SDS011;59284;31.390;34.904;2022-07-22T17:48:46;11.55;;;5.70;;
70744;SDS011;59284;31.390;34.904;2022-07-22T17:51:20;16.00;;;6.03;;
70744;SDS011;59284;31.390;34.904;2022-07-22T17:56:39;12.93;;;6.07;;
70744;SDS011;59284;31.390;34.904;2022-07-22T17:59:34;10.50;;;5.35;;
70744;SDS011;59284;31.390;34.904;2022-07-22T18:02:09;12.10;;;5.75;;
70744;SDS011;59284;31.390;34.904;2022-07-22T18:13:38;8.88;;;6.25;;
70744;SDS011;59284;31.390;34.904;2022-07-22T18:19:56;13.50;;;6.63;;
70744;SDS011;59284;31.390;34.904;2022-07-22T18:22:45;15.43;;;7.45;;
70744;SDS011;59284;31.390;34.904;2022-07-22T18:28:37;13.20;;;6.80;;
70744;SDS011;59284;31.390;34.904;2022-07-22T18:31:14;14.73;;;6.85;;
70744;SDS011;59284;31.390;34.904;2022-07-22T18:33:42;14.10;;;7.40;;
70744;SDS011;59284;31.390;34.904;2022-07-22T18:38:47;11.63;;;7.28;;